createdAt,value
2023-01-12T00:01:58.764Z,95.60
2023-01-12T00:05:20.995Z,95.70
2023-01-12T00:08:43.270Z,95.60
2023-01-12T00:12:06.409Z,95.60
2023-01-12T00:15:57.524Z,95.90
2023-01-12T00:19:21.016Z,95.40
2023-01-12T00:22:43.237Z,95.40
2023-01-12T00:26:08.695Z,95.40
2023-01-12T00:29:31.017Z,95.40
2023-01-12T00:32:53.246Z,95.50
2023-01-12T00:36:16.592Z,95.40
2023-01-12T00:39:43.025Z,95.50
2023-01-12T00:43:26.598Z,95.40
2023-01-12T00:46:48.758Z,95.40
2023-01-12T00:50:10.860Z,95.40
2023-01-12T00:53:33.068Z,95.30
2023-01-12T00:56:55.401Z,95.30
2023-01-12T01:00:17.886Z,95.30
2023-01-12T01:03:40.118Z,95.20
2023-01-12T01:07:02.639Z,95.30
2023-01-12T01:10:24.841Z,95.00
2023-01-12T01:13:48.084Z,95.10
2023-01-12T01:17:10.368Z,95.00
2023-01-12T01:20:36.534Z,95.10
2023-01-12T01:23:59.067Z,95.00
2023-01-12T01:27:21.402Z,95.10
2023-01-12T01:30:43.933Z,95.00
2023-01-12T01:34:06.230Z,94.90
2023-01-12T01:37:28.559Z,95.00
2023-01-12T01:40:50.797Z,95.00
2023-01-12T01:44:30.981Z,95.00
2023-01-12T01:47:55.507Z,94.90
2023-01-12T01:51:17.683Z,94.90
2023-01-12T01:54:41.624Z,94.90
2023-01-12T01:58:06.799Z,95.00
2023-01-12T02:01:29.113Z,95.00
2023-01-12T02:04:52.474Z,95.00
2023-01-12T02:08:19.895Z,95.00
2023-01-12T02:12:00.949Z,95.10
2023-01-12T02:15:44.406Z,95.00
2023-01-12T02:19:33.837Z,95.10
2023-01-12T02:22:55.955Z,95.10
2023-01-12T02:26:29.055Z,95.00
2023-01-12T02:29:51.207Z,95.50
2023-01-12T02:33:19.441Z,95.00
2023-01-12T02:36:44.586Z,95.00
2023-01-12T02:40:25.228Z,94.90
2023-01-12T02:43:47.496Z,95.20
2023-01-12T02:47:14.870Z,94.90
2023-01-12T02:50:37.028Z,94.90
2023-01-12T02:54:07.084Z,94.80
2023-01-12T02:57:30.512Z,94.80
2023-01-12T03:00:55.148Z,94.80
2023-01-12T03:04:18.733Z,94.90
2023-01-12T03:07:46.063Z,94.90
2023-01-12T03:11:14.517Z,94.90
2023-01-12T03:14:38.681Z,94.90
2023-01-12T03:18:05.082Z,95.00
2023-01-12T03:21:30.734Z,94.90
2023-01-12T03:24:56.413Z,95.00
2023-01-12T03:28:19.511Z,95.00
2023-01-12T03:31:42.259Z,95.00
2023-01-12T03:35:05.737Z,95.10
2023-01-12T03:38:41.419Z,95.10
2023-01-12T03:42:23.912Z,95.00
2023-01-12T03:45:50.266Z,95.00
2023-01-12T03:49:17.421Z,95.20
2023-01-12T03:52:40.785Z,95.10
2023-01-12T03:56:05.125Z,95.10
2023-01-12T03:59:27.372Z,95.20
2023-01-12T04:02:49.553Z,95.20
2023-01-12T04:06:11.825Z,95.20
2023-01-12T04:09:34.049Z,95.30
2023-01-12T04:12:56.254Z,95.20
2023-01-12T04:16:19.123Z,95.20
2023-01-12T04:19:41.776Z,95.30
2023-01-12T04:23:04.218Z,95.20
2023-01-12T04:26:26.737Z,95.20
2023-01-12T04:29:48.943Z,95.30
2023-01-12T04:33:11.563Z,95.30
2023-01-12T04:36:33.720Z,95.40
2023-01-12T04:39:55.914Z,95.50
2023-01-12T04:43:18.190Z,95.40
2023-01-12T04:46:40.552Z,95.50
2023-01-12T04:50:02.922Z,95.50
2023-01-12T04:53:25.298Z,95.50
2023-01-12T04:56:47.497Z,95.60
2023-01-12T05:00:10.033Z,95.50
2023-01-12T05:03:32.207Z,95.60
2023-01-12T05:06:54.354Z,95.60
2023-01-12T05:10:22.494Z,95.60
2023-01-12T05:13:44.703Z,95.60
2023-01-12T05:17:06.952Z,95.60
2023-01-12T05:20:29.145Z,95.60
2023-01-12T05:23:52.444Z,95.60
2023-01-12T05:27:14.669Z,95.50
2023-01-12T05:30:36.885Z,95.70
2023-01-12T05:33:59.184Z,95.70
2023-01-12T05:37:21.378Z,95.60
2023-01-12T05:40:43.603Z,95.70
2023-01-12T05:44:05.946Z,95.80
2023-01-12T05:47:28.503Z,95.80
2023-01-12T05:50:50.657Z,95.80
2023-01-12T05:54:12.838Z,95.80
2023-01-12T05:57:35.020Z,95.80
2023-01-12T06:00:57.200Z,95.90
2023-01-12T06:04:19.458Z,96.00
2023-01-12T06:07:42.714Z,95.80
2023-01-12T06:11:04.896Z,96.10
2023-01-12T06:14:27.153Z,96.40
2023-01-12T06:17:49.371Z,96.20
2023-01-12T06:21:11.609Z,96.00
2023-01-12T06:24:34.241Z,96.50
2023-01-12T06:27:56.678Z,96.30
2023-01-12T06:31:18.949Z,96.50
2023-01-12T06:34:41.214Z,96.90
2023-01-12T06:38:03.374Z,96.30
2023-01-12T06:41:44.229Z,96.40
2023-01-12T06:45:07.111Z,96.20
2023-01-12T06:48:38.689Z,96.10
2023-01-12T06:52:01.772Z,96.70
2023-01-12T06:55:23.967Z,96.30
2023-01-12T06:58:46.130Z,95.90
2023-01-12T07:02:16.143Z,96.50
2023-01-12T07:05:38.350Z,97.10
2023-01-12T07:09:00.553Z,97.10
2023-01-12T07:12:22.995Z,97.20
2023-01-12T07:15:45.244Z,97.20
2023-01-12T07:19:07.382Z,96.30
2023-01-12T07:22:30.366Z,95.90
2023-01-12T07:25:52.566Z,96.30
2023-01-12T07:29:14.760Z,97.60
2023-01-12T07:32:36.914Z,97.40
2023-01-12T07:35:59.894Z,97.70
2023-01-12T07:39:22.039Z,97.70
2023-01-12T07:42:44.296Z,97.60
2023-01-12T07:46:07.659Z,97.60
2023-01-12T07:49:29.844Z,97.40
2023-01-12T07:52:52.120Z,97.60
2023-01-12T07:56:16.137Z,97.70
2023-01-12T07:59:38.285Z,97.80
2023-01-12T08:03:04.756Z,98.10
2023-01-12T08:06:26.975Z,97.60
2023-01-12T08:09:49.279Z,97.70
2023-01-12T08:13:11.469Z,97.00
2023-01-12T08:16:36.318Z,97.80
2023-01-12T08:20:01.643Z,97.90
2023-01-12T08:23:27.840Z,98.00
2023-01-12T08:26:51.385Z,97.90
2023-01-12T08:30:15.465Z,98.00
2023-01-12T08:33:38.258Z,98.00
2023-01-12T08:37:01.666Z,98.20
2023-01-12T08:40:24.537Z,98.30
2023-01-12T08:44:07.442Z,98.30
2023-01-12T08:47:30.539Z,99.10
2023-01-12T08:50:54.049Z,99.10
2023-01-12T08:54:17.252Z,99.40
2023-01-12T08:57:39.446Z,99.10
2023-01-12T09:01:08.771Z,99.80
2023-01-12T09:04:31.110Z,99.90
2023-01-12T09:07:53.310Z,99.60
2023-01-12T09:11:16.049Z,99.90
2023-01-12T09:14:38.973Z,98.30
2023-01-12T09:18:01.715Z,99.10
2023-01-12T09:21:25.386Z,98.70
2023-01-12T09:24:47.627Z,98.00
2023-01-12T09:28:09.734Z,98.50
2023-01-12T09:31:32.499Z,98.50
2023-01-12T09:34:54.798Z,99.10
2023-01-12T09:38:17.526Z,99.10
2023-01-12T09:42:08.064Z,97.60
2023-01-12T09:45:49.104Z,98.90
2023-01-12T09:49:12.315Z,99.00
2023-01-12T09:52:36.687Z,99.40
2023-01-12T09:56:08.686Z,99.20
2023-01-12T09:59:49.064Z,99.40
2023-01-12T10:03:11.251Z,99.30
2023-01-12T10:06:34.625Z,98.10
2023-01-12T10:09:57.922Z,98.90
2023-01-12T10:13:20.709Z,99.00
2023-01-12T10:16:42.945Z,98.60
2023-01-12T10:20:08.234Z,98.00
2023-01-12T10:23:30.665Z,98.30
2023-01-12T10:27:13.506Z,98.10
2023-01-12T10:30:37.013Z,98.50
2023-01-12T10:34:02.353Z,98.60
2023-01-12T10:37:24.522Z,98.30
2023-01-12T10:41:02.132Z,98.50
2023-01-12T10:44:24.309Z,98.50
2023-01-12T10:47:47.922Z,98.50
2023-01-12T10:51:28.897Z,98.60
2023-01-12T10:54:51.172Z,98.40
2023-01-12T10:58:22.245Z,98.30
2023-01-12T11:02:03.468Z,98.50
2023-01-12T11:05:35.427Z,98.00
2023-01-12T11:08:58.031Z,98.50
2023-01-12T11:12:23.717Z,97.70
2023-01-12T11:15:54.581Z,97.40
2023-01-12T11:19:17.792Z,96.70
2023-01-12T11:22:41.061Z,96.70
2023-01-12T11:26:08.549Z,96.80
2023-01-12T11:29:39.912Z,97.10
2023-01-12T11:33:04.234Z,96.90
2023-01-12T11:36:49.820Z,97.20
2023-01-12T11:40:35.379Z,97.90
2023-01-12T11:43:57.529Z,98.50
2023-01-12T11:47:30.176Z,98.90
2023-01-12T11:50:53.502Z,98.80
2023-01-12T11:54:16.785Z,99.90
2023-01-12T11:57:50.284Z,99.90
2023-01-12T12:01:19.896Z,99.90
2023-01-12T12:05:04.314Z,99.90
2023-01-12T12:08:27.169Z,99.50
2023-01-12T12:11:49.391Z,99.90
2023-01-12T12:15:17.398Z,99.90
2023-01-12T12:18:46.445Z,99.70
2023-01-12T12:22:15.329Z,99.20
2023-01-12T12:25:48.486Z,98.90
2023-01-12T12:29:16.825Z,99.60
2023-01-12T12:32:51.795Z,99.60
2023-01-12T12:36:23.318Z,99.40
2023-01-12T12:40:08.544Z,99.70
2023-01-12T12:43:50.188Z,99.90
2023-01-12T12:47:31.138Z,99.80
2023-01-12T12:51:07.726Z,99.20
2023-01-12T12:54:30.364Z,99.90
2023-01-12T12:58:02.548Z,99.50
2023-01-12T13:01:25.094Z,99.60
2023-01-12T13:04:47.404Z,99.40
2023-01-12T13:08:39.084Z,99.30
2023-01-12T13:12:01.452Z,99.30
2023-01-12T13:15:25.546Z,99.50
2023-01-12T13:18:50.574Z,99.50
2023-01-12T13:22:29.400Z,99.50
2023-01-12T13:25:55.756Z,99.60
2023-01-12T13:29:27.069Z,99.60
2023-01-12T13:32:55.142Z,99.60
2023-01-12T13:36:29.838Z,99.80
2023-01-12T13:40:10.372Z,99.70
2023-01-12T13:43:34.293Z,99.90
2023-01-12T13:47:02.026Z,99.90
2023-01-12T13:50:25.152Z,99.90
2023-01-12T13:54:19.979Z,99.90
2023-01-12T13:57:42.331Z,99.90
2023-01-12T14:01:05.991Z,99.90
2023-01-12T14:04:37.326Z,99.90
2023-01-12T14:08:11.608Z,99.90
2023-01-12T14:11:43.295Z,99.90
2023-01-12T14:15:39.279Z,99.90
2023-01-12T14:19:01.908Z,99.90
2023-01-12T14:22:24.083Z,99.90
2023-01-12T14:25:47.249Z,99.90
2023-01-12T14:29:13.004Z,99.90
2023-01-12T14:32:35.252Z,99.90
2023-01-12T14:36:02.090Z,99.90
2023-01-12T14:39:26.443Z,99.90
2023-01-12T14:43:07.308Z,99.90
2023-01-12T14:46:33.599Z,99.90
2023-01-12T14:49:55.974Z,99.90
2023-01-12T14:53:24.845Z,99.90
2023-01-12T14:56:51.677Z,99.90
2023-01-12T15:00:21.570Z,99.90
2023-01-12T15:03:47.049Z,99.90
2023-01-12T15:07:16.162Z,99.90
2023-01-12T15:10:39.798Z,99.90
2023-01-12T15:14:03.418Z,99.90
2023-01-12T15:17:44.122Z,99.90
2023-01-12T15:21:24.969Z,99.90
2023-01-12T15:25:05.931Z,99.90
2023-01-12T15:28:31.422Z,99.90
2023-01-12T15:31:53.653Z,99.90
2023-01-12T15:35:15.890Z,99.90
2023-01-12T15:38:38.080Z,99.90
2023-01-12T15:42:20.056Z,99.90
2023-01-12T15:45:44.013Z,99.90
2023-01-12T15:49:06.357Z,99.90
2023-01-12T15:52:30.501Z,99.90
2023-01-12T15:55:52.726Z,99.90
2023-01-12T15:59:15.089Z,99.90
2023-01-12T16:02:38.131Z,99.90
2023-01-12T16:06:00.406Z,99.90
2023-01-12T16:09:22.685Z,99.90
2023-01-12T16:12:45.750Z,99.90
2023-01-12T16:16:08.434Z,99.90
2023-01-12T16:19:30.691Z,99.90
2023-01-12T16:22:52.986Z,99.90
2023-01-12T16:26:15.298Z,99.90
2023-01-12T16:29:37.872Z,99.90
2023-01-12T16:33:00.187Z,99.90
2023-01-12T16:36:22.526Z,99.90
2023-01-12T16:39:44.706Z,99.90
2023-01-12T16:43:06.928Z,99.90
2023-01-12T16:46:29.056Z,99.90
2023-01-12T16:49:51.556Z,99.90
2023-01-12T16:53:13.722Z,99.90
2023-01-12T16:56:36.010Z,99.90
2023-01-12T16:59:58.176Z,99.90
2023-01-12T17:03:20.488Z,99.90
2023-01-12T17:06:42.678Z,99.90
2023-01-12T17:10:05.053Z,99.90
2023-01-12T17:13:30.581Z,99.90
2023-01-12T17:16:57.313Z,99.90
2023-01-12T17:20:22.566Z,99.90
2023-01-12T17:23:45.114Z,99.90
2023-01-12T17:27:08.361Z,99.90
2023-01-12T17:30:30.711Z,99.90
2023-01-12T17:33:53.084Z,99.90
2023-01-12T17:37:15.683Z,99.90
2023-01-12T17:40:38.811Z,99.90
2023-01-12T17:44:01.966Z,99.90
2023-01-12T17:47:24.701Z,99.90
2023-01-12T17:50:47.191Z,99.90
2023-01-12T17:54:11.250Z,99.90
2023-01-12T17:57:36.043Z,99.90
2023-01-12T18:00:58.369Z,99.90
2023-01-12T18:04:21.564Z,99.90
2023-01-12T18:07:43.760Z,99.90
2023-01-12T18:11:08.749Z,99.90
2023-01-12T18:14:30.958Z,99.70
2023-01-12T18:17:53.189Z,99.90
2023-01-12T18:21:17.488Z,99.90
2023-01-12T18:24:39.737Z,99.90
2023-01-12T18:28:01.852Z,99.90
2023-01-12T18:31:25.863Z,99.90
2023-01-12T18:34:48.074Z,99.90
2023-01-12T18:38:10.403Z,99.90
2023-01-12T18:41:51.221Z,99.90
2023-01-12T18:45:13.655Z,99.90
2023-01-12T18:48:35.774Z,99.90
2023-01-12T18:52:16.385Z,99.90
2023-01-12T18:55:40.035Z,99.90
2023-01-12T18:59:04.256Z,99.90
2023-01-12T19:02:27.033Z,99.90
2023-01-12T19:05:58.463Z,99.90
2023-01-12T19:09:35.627Z,99.90
2023-01-12T19:13:16.929Z,99.90
2023-01-12T19:16:57.762Z,99.90
2023-01-12T19:20:21.175Z,99.90
2023-01-12T19:24:01.767Z,99.90
2023-01-12T19:27:42.394Z,99.90
2023-01-12T19:31:06.042Z,99.90
2023-01-12T19:34:28.398Z,99.90
2023-01-12T19:37:50.630Z,99.90
2023-01-12T19:41:32.787Z,99.90
2023-01-12T19:44:56.168Z,99.90
2023-01-12T19:48:19.791Z,99.90
2023-01-12T19:51:45.502Z,99.90
2023-01-12T19:55:09.013Z,99.90
2023-01-12T19:58:31.400Z,99.90
2023-01-12T20:01:54.154Z,99.90
2023-01-12T20:05:22.736Z,99.90
2023-01-12T20:08:45.349Z,99.90
2023-01-12T20:12:07.609Z,99.90
2023-01-12T20:15:29.852Z,99.90
2023-01-12T20:18:56.074Z,99.90
2023-01-12T20:22:18.262Z,99.90
2023-01-12T20:25:41.281Z,99.90
2023-01-12T20:29:03.584Z,99.90
2023-01-12T20:32:26.778Z,99.90
2023-01-12T20:35:49.768Z,99.90
2023-01-12T20:39:12.002Z,99.90
2023-01-12T20:42:34.559Z,99.90
2023-01-12T20:45:56.706Z,99.90
2023-01-12T20:49:19.198Z,99.90
2023-01-12T20:52:41.766Z,99.90
2023-01-12T20:56:04.312Z,99.90
2023-01-12T20:59:26.858Z,99.90
2023-01-12T21:02:49.135Z,99.90
2023-01-12T21:06:12.537Z,99.90
2023-01-12T21:09:34.879Z,99.90
2023-01-12T21:12:57.051Z,99.90
2023-01-12T21:16:19.773Z,99.90
2023-01-12T21:19:42.246Z,99.90
2023-01-12T21:23:04.468Z,99.90
2023-01-12T21:26:26.662Z,99.90
2023-01-12T21:29:49.243Z,99.90
2023-01-12T21:33:11.521Z,99.90
2023-01-12T21:36:33.795Z,99.90
2023-01-12T21:39:55.902Z,99.90
2023-01-12T21:43:18.264Z,99.40
2023-01-12T21:46:40.357Z,99.90
2023-01-12T21:50:02.518Z,99.90
2023-01-12T21:53:24.729Z,99.90
2023-01-12T21:56:46.913Z,99.90
2023-01-12T22:00:10.355Z,99.90
2023-01-12T22:03:35.525Z,99.90
2023-01-12T22:06:57.885Z,99.90
2023-01-12T22:10:20.139Z,99.90
2023-01-12T22:13:43.438Z,99.90
2023-01-12T22:17:05.765Z,99.90
2023-01-12T22:20:28.657Z,99.90
2023-01-12T22:23:50.890Z,99.90
2023-01-12T22:27:13.078Z,99.90
2023-01-12T22:30:35.263Z,99.90
2023-01-12T22:34:02.655Z,99.90
2023-01-12T22:37:25.880Z,99.90
2023-01-12T22:40:48.051Z,99.90
2023-01-12T22:44:10.250Z,99.90
2023-01-12T22:47:34.600Z,99.90
2023-01-12T22:51:06.161Z,99.90
2023-01-12T22:54:28.366Z,99.90
2023-01-12T22:57:50.911Z,99.90
2023-01-12T23:01:13.851Z,99.90
2023-01-12T23:04:36.018Z,99.90
2023-01-12T23:07:58.603Z,99.90
2023-01-12T23:11:22.510Z,99.90
2023-01-12T23:14:44.744Z,99.90
2023-01-12T23:18:07.485Z,99.90
2023-01-12T23:21:29.773Z,99.90
2023-01-12T23:24:52.217Z,99.90
2023-01-12T23:28:15.011Z,99.80
2023-01-12T23:31:37.488Z,99.70
2023-01-12T23:34:59.753Z,99.70
2023-01-12T23:38:22.491Z,99.60
2023-01-12T23:41:44.731Z,99.50
2023-01-12T23:45:07.190Z,99.40
2023-01-12T23:48:29.667Z,99.40
2023-01-12T23:51:51.953Z,99.30
2023-01-12T23:55:14.289Z,99.20
2023-01-12T23:58:36.746Z,99.00
